createdAt,value
2022-09-02T00:01:49.465Z,58.10
2022-09-02T00:04:21.863Z,58.10
2022-09-02T00:06:54.034Z,58.30
2022-09-02T00:09:24.587Z,58.50
2022-09-02T00:11:54.993Z,58.60
2022-09-02T00:14:26.388Z,59.00
2022-09-02T00:16:55.338Z,59.60
2022-09-02T00:19:26.750Z,59.20
2022-09-02T00:21:59.270Z,59.50
2022-09-02T00:24:28.244Z,59.10
2022-09-02T00:26:56.952Z,59.60
2022-09-02T00:29:26.203Z,59.80
2022-09-02T00:31:54.709Z,60.80
2022-09-02T00:34:24.452Z,59.90
2022-09-02T00:36:53.192Z,59.70
2022-09-02T00:39:21.632Z,61.90
2022-09-02T00:41:50.100Z,61.50
2022-09-02T00:44:20.566Z,60.70
2022-09-02T00:46:49.076Z,60.30
2022-09-02T00:49:25.215Z,60.80
2022-09-02T00:51:58.443Z,60.40
2022-09-02T00:54:29.367Z,60.10
2022-09-02T00:56:58.160Z,60.90
2022-09-02T00:59:31.646Z,60.70
2022-09-02T01:02:00.151Z,60.50
2022-09-02T01:04:29.373Z,62.30
2022-09-02T01:06:59.045Z,62.70
2022-09-02T01:09:27.549Z,62.20
2022-09-02T01:11:56.746Z,65.60
2022-09-02T01:14:28.548Z,64.50
2022-09-02T01:17:01.280Z,63.30
2022-09-02T01:19:33.644Z,63.30
2022-09-02T01:22:07.328Z,62.70
2022-09-02T01:24:36.149Z,62.70
2022-09-02T01:27:04.838Z,62.10
2022-09-02T01:29:33.249Z,61.20
2022-09-02T01:32:03.823Z,60.80
2022-09-02T01:34:33.422Z,60.70
2022-09-02T01:37:03.154Z,60.80
2022-09-02T01:39:31.407Z,60.40
2022-09-02T01:42:00.637Z,60.40
2022-09-02T01:44:30.024Z,60.40
2022-09-02T01:46:58.566Z,61.00
2022-09-02T01:49:27.741Z,60.80
2022-09-02T01:51:57.302Z,60.90
2022-09-02T01:54:27.221Z,61.40
2022-09-02T01:56:55.484Z,61.00
2022-09-02T01:59:25.006Z,62.50
2022-09-02T02:01:54.681Z,63.00
2022-09-02T02:04:24.785Z,62.30
2022-09-02T02:06:55.789Z,61.70
2022-09-02T02:09:26.032Z,61.60
2022-09-02T02:11:55.148Z,62.80
2022-09-02T02:14:24.169Z,62.50
2022-09-02T02:16:53.025Z,64.40
2022-09-02T02:19:21.336Z,63.30
2022-09-02T02:21:50.096Z,61.90
2022-09-02T02:24:18.508Z,62.10
2022-09-02T02:26:48.633Z,62.30
2022-09-02T02:29:19.647Z,61.70
2022-09-02T02:31:50.040Z,61.50
2022-09-02T02:34:18.978Z,61.30
2022-09-02T02:36:48.231Z,61.70
2022-09-02T02:39:16.650Z,62.30
2022-09-02T02:41:46.632Z,61.50
2022-09-02T02:44:17.409Z,61.60
2022-09-02T02:46:47.183Z,61.70
2022-09-02T02:49:16.051Z,62.50
2022-09-02T02:51:44.419Z,63.20
2022-09-02T02:54:14.526Z,63.20
2022-09-02T02:56:43.507Z,62.50
2022-09-02T02:59:11.882Z,62.30
2022-09-02T03:01:42.391Z,62.90
2022-09-02T03:04:10.998Z,62.50
2022-09-02T03:06:39.343Z,63.20
2022-09-02T03:09:07.915Z,62.40
2022-09-02T03:11:38.461Z,62.10
2022-09-02T03:14:08.685Z,62.80
2022-09-02T03:16:38.120Z,62.50
2022-09-02T03:19:07.871Z,62.10
2022-09-02T03:21:38.697Z,61.90
2022-09-02T03:24:08.787Z,63.10
2022-09-02T03:26:37.395Z,61.80
2022-09-02T03:29:06.088Z,62.40
2022-09-02T03:31:35.171Z,61.90
2022-09-02T03:34:04.351Z,61.80
2022-09-02T03:36:40.043Z,62.60
2022-09-02T03:39:11.706Z,62.60
2022-09-02T03:41:43.042Z,63.30
2022-09-02T03:44:12.784Z,62.70
2022-09-02T03:46:42.879Z,63.20
2022-09-02T03:49:12.907Z,63.60
2022-09-02T03:51:44.368Z,64.50
2022-09-02T03:54:12.874Z,64.90
2022-09-02T03:56:42.583Z,65.40
2022-09-02T03:59:11.688Z,65.30
2022-09-02T04:01:40.639Z,65.40
2022-09-02T04:04:09.983Z,65.00
2022-09-02T04:06:42.057Z,64.90
2022-09-02T04:09:10.479Z,64.50
2022-09-02T04:11:42.855Z,64.80
2022-09-02T04:14:13.108Z,64.40
2022-09-02T04:16:41.695Z,64.00
2022-09-02T04:19:10.905Z,64.40
2022-09-02T04:21:43.295Z,64.80
2022-09-02T04:24:13.608Z,64.70
2022-09-02T04:26:46.469Z,64.40
2022-09-02T04:29:19.216Z,63.60
2022-09-02T04:31:50.058Z,63.20
2022-09-02T04:34:19.087Z,63.40
2022-09-02T04:36:51.379Z,63.10
2022-09-02T04:39:20.990Z,63.30
2022-09-02T04:41:50.948Z,63.40
2022-09-02T04:44:19.302Z,63.90
2022-09-02T04:46:50.307Z,64.60
2022-09-02T04:49:21.496Z,64.80
2022-09-02T04:51:55.583Z,65.40
2022-09-02T04:54:25.849Z,65.50
2022-09-02T04:56:56.540Z,66.00
2022-09-02T04:59:26.144Z,67.70
2022-09-02T05:02:15.333Z,68.60
2022-09-02T05:04:44.507Z,67.70
2022-09-02T05:07:21.915Z,67.70
2022-09-02T05:09:50.590Z,66.50
2022-09-02T05:12:19.277Z,67.20
2022-09-02T05:14:53.612Z,66.50
2022-09-02T05:17:24.361Z,66.60
2022-09-02T05:19:53.083Z,66.70
2022-09-02T05:22:25.448Z,65.50
2022-09-02T05:24:57.500Z,65.70
2022-09-02T05:27:26.854Z,66.20
2022-09-02T05:29:58.098Z,66.20
2022-09-02T05:32:27.512Z,66.20
2022-09-02T05:34:56.006Z,67.20
2022-09-02T05:37:26.149Z,69.20
2022-09-02T05:39:54.908Z,70.50
2022-09-02T05:42:23.217Z,69.50
2022-09-02T05:44:53.163Z,69.70
2022-09-02T05:47:25.580Z,68.60
2022-09-02T05:49:56.079Z,68.00
2022-09-02T05:52:27.419Z,68.10
2022-09-02T05:54:57.740Z,68.50
2022-09-02T05:57:26.143Z,68.90
2022-09-02T06:00:07.713Z,67.40
2022-09-02T06:02:52.358Z,68.10
2022-09-02T06:05:30.950Z,66.90
2022-09-02T06:08:11.147Z,66.80
2022-09-02T06:10:43.098Z,67.20
2022-09-02T06:13:16.051Z,67.30
2022-09-02T06:15:45.488Z,70.30
2022-09-02T06:18:15.407Z,68.70
2022-09-02T06:20:46.237Z,68.90
2022-09-02T06:23:17.570Z,70.50
2022-09-02T06:25:49.134Z,71.00
2022-09-02T06:28:17.678Z,73.20
2022-09-02T06:30:50.237Z,71.10
2022-09-02T06:33:23.327Z,75.10
2022-09-02T06:35:52.715Z,74.70
2022-09-02T06:38:23.179Z,76.70
2022-09-02T06:40:55.564Z,77.80
2022-09-02T06:43:35.795Z,78.00
2022-09-02T06:46:20.217Z,74.80
2022-09-02T06:48:51.222Z,77.30
2022-09-02T06:51:23.574Z,77.60
2022-09-02T06:53:54.098Z,78.00
2022-09-02T06:56:24.804Z,78.60
2022-09-02T06:58:53.648Z,78.20
2022-09-02T07:01:26.145Z,78.40
2022-09-02T07:04:12.747Z,78.60
2022-09-02T07:06:43.392Z,78.30
2022-09-02T07:09:16.145Z,77.80
2022-09-02T07:11:47.878Z,78.10
2022-09-02T07:14:16.739Z,74.90
2022-09-02T07:16:51.921Z,76.40
2022-09-02T07:19:21.589Z,75.80
2022-09-02T07:21:50.489Z,76.40
2022-09-02T07:24:20.506Z,76.60
2022-09-02T07:26:49.915Z,76.90
2022-09-02T07:29:23.964Z,75.10
2022-09-02T07:31:53.243Z,72.70
2022-09-02T07:34:23.620Z,71.40
2022-09-02T07:36:52.683Z,69.80
2022-09-02T07:39:24.328Z,70.80
2022-09-02T07:41:53.432Z,70.00
2022-09-02T07:44:24.027Z,70.60
2022-09-02T07:46:54.536Z,69.80
2022-09-02T07:49:24.410Z,68.90
2022-09-02T07:51:53.911Z,70.60
2022-09-02T07:54:26.905Z,69.20
2022-09-02T07:56:56.915Z,66.80
2022-09-02T07:59:25.922Z,62.70
2022-09-02T08:01:57.470Z,60.80
2022-09-02T08:04:25.931Z,60.70
2022-09-02T08:06:55.002Z,62.20
2022-09-02T08:09:25.073Z,60.20
2022-09-02T08:11:54.388Z,60.10
2022-09-02T08:14:26.383Z,60.50
2022-09-02T08:16:56.261Z,59.20
2022-09-02T08:19:26.376Z,60.60
2022-09-02T08:21:55.423Z,58.30
2022-09-02T08:24:25.360Z,56.30
2022-09-02T08:26:53.615Z,57.50
2022-09-02T08:29:21.853Z,58.00
2022-09-02T08:31:53.522Z,54.70
2022-09-02T08:34:22.915Z,55.20
2022-09-02T08:36:56.739Z,54.10
2022-09-02T08:39:27.026Z,55.30
2022-09-02T08:42:03.385Z,55.70
2022-09-02T08:44:37.592Z,56.20
2022-09-02T08:47:10.997Z,57.20
2022-09-02T08:49:43.654Z,58.40
2022-09-02T08:52:18.576Z,58.20
2022-09-02T08:54:55.660Z,58.20
2022-09-02T08:57:27.258Z,57.60
2022-09-02T09:00:00.954Z,55.70
2022-09-02T09:02:35.743Z,54.70
2022-09-02T09:05:16.443Z,52.20
2022-09-02T09:08:01.021Z,53.80
2022-09-02T09:10:39.504Z,51.70
2022-09-02T09:13:27.256Z,51.00
2022-09-02T09:16:03.034Z,50.30
2022-09-02T09:18:39.559Z,52.30
2022-09-02T09:21:10.909Z,45.70
2022-09-02T09:23:41.083Z,46.40
2022-09-02T09:26:12.462Z,45.50
2022-09-02T09:28:42.471Z,47.10
2022-09-02T09:31:17.114Z,44.70
2022-09-02T09:33:59.859Z,42.90
2022-09-02T09:36:51.302Z,41.00
2022-09-02T09:39:26.005Z,40.30
2022-09-02T09:41:57.785Z,39.40
2022-09-02T09:44:38.563Z,39.10
2022-09-02T09:47:09.483Z,41.20
2022-09-02T09:49:38.141Z,39.80
2022-09-02T09:52:06.825Z,38.40
2022-09-02T09:54:35.168Z,39.30
2022-09-02T09:57:21.613Z,38.70
2022-09-02T09:59:56.128Z,39.60
2022-09-02T10:02:26.823Z,38.10
2022-09-02T10:04:57.079Z,39.40
2022-09-02T10:07:39.776Z,38.40
2022-09-02T10:10:18.907Z,37.00
2022-09-02T10:12:50.574Z,37.00
2022-09-02T10:15:27.427Z,37.50
2022-09-02T10:18:05.361Z,34.50
2022-09-02T10:21:04.883Z,35.10
2022-09-02T10:23:46.872Z,34.90
2022-09-02T10:26:26.953Z,35.50
2022-09-02T10:29:25.699Z,35.10
2022-09-02T10:32:17.479Z,34.50
2022-09-02T10:34:56.666Z,34.50
2022-09-02T10:37:26.469Z,34.60
2022-09-02T10:40:10.032Z,33.00
2022-09-02T10:42:48.991Z,35.00
2022-09-02T10:45:26.403Z,32.40
2022-09-02T10:48:05.107Z,30.90
2022-09-02T10:50:41.647Z,31.70
2022-09-02T10:53:21.668Z,29.20
2022-09-02T10:55:58.732Z,29.90
2022-09-02T10:58:39.139Z,28.70
2022-09-02T11:01:13.344Z,29.00
2022-09-02T11:03:46.407Z,31.10
2022-09-02T11:06:31.730Z,28.40
2022-09-02T11:09:14.750Z,27.80
2022-09-02T11:11:48.650Z,26.80
2022-09-02T11:14:23.848Z,27.10
2022-09-02T11:17:02.774Z,26.60
2022-09-02T11:19:38.374Z,26.50
2022-09-02T11:22:16.361Z,27.90
2022-09-02T11:24:53.842Z,23.70
2022-09-02T11:27:42.139Z,23.30
2022-09-02T11:30:16.362Z,24.00
2022-09-02T11:32:53.184Z,23.10
2022-09-02T11:35:26.711Z,24.30
2022-09-02T11:38:02.113Z,26.80
2022-09-02T11:40:37.399Z,29.80
2022-09-02T11:43:24.156Z,27.00
2022-09-02T11:46:13.686Z,21.10
2022-09-02T11:49:22.721Z,24.00
2022-09-02T11:52:05.992Z,23.90
2022-09-02T11:54:40.314Z,22.00
2022-09-02T11:57:14.601Z,26.60
2022-09-02T12:00:10.866Z,22.30
2022-09-02T12:02:47.101Z,22.40
2022-09-02T12:06:05.619Z,23.50
2022-09-02T12:09:01.062Z,23.80
2022-09-02T12:11:55.891Z,22.00
2022-09-02T12:15:03.670Z,22.80
2022-09-02T12:17:41.300Z,20.80
2022-09-02T12:20:13.077Z,19.40
2022-09-02T12:22:43.264Z,22.70
2022-09-02T12:25:40.428Z,21.90
2022-09-02T12:28:25.622Z,21.40
2022-09-02T12:31:40.936Z,19.60
2022-09-02T12:34:42.634Z,20.00
2022-09-02T12:37:11.463Z,19.70
2022-09-02T12:40:03.122Z,21.40
2022-09-02T12:42:34.724Z,20.80
2022-09-02T12:45:12.351Z,23.50
2022-09-02T12:47:58.228Z,21.70
2022-09-02T12:50:29.955Z,20.60
2022-09-02T12:53:34.735Z,20.00
2022-09-02T12:56:09.519Z,21.70
2022-09-02T12:58:47.199Z,20.00
2022-09-02T13:01:20.188Z,22.00
2022-09-02T13:04:30.720Z,19.60
2022-09-02T13:07:35.839Z,20.70
2022-09-02T13:10:22.488Z,19.90
2022-09-02T13:13:17.207Z,19.90
2022-09-02T13:16:00.938Z,19.30
2022-09-02T13:19:06.461Z,18.40
2022-09-02T13:22:13.547Z,21.50
2022-09-02T13:25:13.289Z,18.90
2022-09-02T13:28:13.682Z,19.70
2022-09-02T13:31:03.258Z,18.60
2022-09-02T13:33:31.744Z,20.10
2022-09-02T13:36:00.246Z,19.60
2022-09-02T13:38:30.165Z,19.50
2022-09-02T13:40:58.357Z,20.50
2022-09-02T13:43:28.516Z,19.90
2022-09-02T13:46:02.144Z,22.00
2022-09-02T13:48:32.948Z,19.30
2022-09-02T13:51:10.446Z,19.30
2022-09-02T13:53:53.830Z,19.60
2022-09-02T13:56:31.711Z,20.70
2022-09-02T13:59:01.417Z,19.70
2022-09-02T14:01:32.738Z,18.50
2022-09-02T14:06:36.997Z,19.00
2022-09-02T14:09:08.503Z,18.30
2022-09-02T14:11:43.049Z,19.50
2022-09-02T14:14:16.487Z,18.50
2022-09-02T14:16:45.038Z,19.70
2022-09-02T14:19:25.011Z,19.00
2022-09-02T14:21:56.323Z,19.20
2022-09-02T14:24:28.290Z,19.40
2022-09-02T14:26:57.962Z,18.70
2022-09-02T14:29:31.984Z,19.80
2022-09-02T14:32:14.717Z,20.60
2022-09-02T14:34:44.871Z,18.40
2022-09-02T14:37:23.686Z,19.80
2022-09-02T14:40:11.767Z,19.40
2022-09-02T14:42:57.327Z,20.10
2022-09-02T14:45:29.835Z,19.60
2022-09-02T14:48:01.508Z,19.80
2022-09-02T14:50:32.653Z,19.70
2022-09-02T14:53:06.218Z,20.70
2022-09-02T14:55:53.413Z,20.50
2022-09-02T14:58:27.085Z,22.50
2022-09-02T15:01:00.069Z,20.20
2022-09-02T15:03:30.690Z,20.70
2022-09-02T15:05:59.038Z,19.40
2022-09-02T15:08:27.487Z,21.20
2022-09-02T15:10:59.392Z,21.00
2022-09-02T15:13:30.518Z,20.40
2022-09-02T15:16:00.701Z,20.60
2022-09-02T15:18:29.044Z,21.90
2022-09-02T15:20:57.638Z,23.00
2022-09-02T15:23:27.374Z,22.90
2022-09-02T15:25:57.372Z,22.50
2022-09-02T15:28:25.703Z,23.80
2022-09-02T15:31:00.301Z,23.50
2022-09-02T15:33:28.973Z,22.60
2022-09-02T15:36:05.748Z,21.50
2022-09-02T15:38:34.055Z,22.40
2022-09-02T15:41:15.075Z,21.20
2022-09-02T15:43:43.812Z,20.20
2022-09-02T15:46:29.012Z,22.20
2022-09-02T15:49:02.712Z,22.50
2022-09-02T15:51:31.965Z,23.10
2022-09-02T15:54:01.694Z,24.30
2022-09-02T15:56:32.132Z,24.90
2022-09-02T15:59:01.995Z,23.40
2022-09-02T16:01:33.903Z,23.10
2022-09-02T16:04:02.925Z,23.40
2022-09-02T16:06:33.223Z,23.30
2022-09-02T16:09:01.934Z,23.70
2022-09-02T16:11:30.620Z,24.10
2022-09-02T16:13:59.476Z,25.90
2022-09-02T16:16:27.722Z,26.00
2022-09-02T16:18:57.260Z,25.80
2022-09-02T16:21:25.818Z,25.30
2022-09-02T16:23:53.990Z,25.70
2022-09-02T16:26:27.150Z,25.80
2022-09-02T16:28:57.287Z,26.40
2022-09-02T16:31:27.403Z,26.40
2022-09-02T16:33:58.895Z,26.70
2022-09-02T16:36:33.152Z,26.80
2022-09-02T16:39:02.001Z,26.70
2022-09-02T16:41:34.636Z,26.70
2022-09-02T16:44:05.715Z,26.80
2022-09-02T16:46:35.354Z,26.30
2022-09-02T16:49:06.263Z,26.80
2022-09-02T16:51:34.515Z,27.40
2022-09-02T16:54:04.579Z,28.40
2022-09-02T16:56:33.575Z,30.90
2022-09-02T16:59:03.599Z,30.60
2022-09-02T17:01:32.758Z,31.10
2022-09-02T17:04:01.661Z,31.20
2022-09-02T17:06:32.042Z,31.20
2022-09-02T17:09:00.512Z,30.50
2022-09-02T17:11:30.253Z,31.10
2022-09-02T17:14:00.464Z,32.70
2022-09-02T17:16:31.402Z,33.50
2022-09-02T17:18:59.776Z,32.90
2022-09-02T17:21:32.255Z,32.90
2022-09-02T17:24:00.836Z,36.60
2022-09-02T17:26:30.884Z,35.90
2022-09-02T17:28:59.352Z,35.20
2022-09-02T17:31:30.240Z,35.00
2022-09-02T17:34:00.440Z,36.40
2022-09-02T17:36:32.194Z,36.60
2022-09-02T17:39:01.872Z,37.00
2022-09-02T17:41:47.347Z,32.50
2022-09-02T17:44:16.906Z,33.60
2022-09-02T17:46:46.169Z,34.70
2022-09-02T17:49:17.702Z,35.70
2022-09-02T17:51:48.196Z,35.50
2022-09-02T17:54:16.923Z,35.20
2022-09-02T17:56:58.876Z,34.80
2022-09-02T17:59:33.682Z,34.70
2022-09-02T18:02:33.850Z,34.20
2022-09-02T18:05:06.336Z,33.90
2022-09-02T18:07:44.323Z,33.90
2022-09-02T18:10:13.515Z,34.00
2022-09-02T18:12:42.839Z,33.70
2022-09-02T18:15:14.577Z,33.20
2022-09-02T18:17:48.903Z,33.30
2022-09-02T18:20:25.817Z,33.00
2022-09-02T18:23:09.121Z,33.00
2022-09-02T18:25:49.399Z,33.70
2022-09-02T18:28:28.410Z,32.90
2022-09-02T18:31:08.860Z,33.10
2022-09-02T18:34:05.505Z,33.50
2022-09-02T18:36:43.206Z,33.60
2022-09-02T18:39:35.375Z,34.00
2022-09-02T18:42:18.431Z,33.80
2022-09-02T18:44:56.364Z,34.20
2022-09-02T18:47:27.922Z,34.30
2022-09-02T18:49:59.800Z,34.60
2022-09-02T18:52:29.802Z,34.20
2022-09-02T18:55:07.856Z,34.40
2022-09-02T18:57:42.921Z,33.80
2022-09-02T19:00:13.714Z,34.00
2022-09-02T19:02:49.164Z,33.90
2022-09-02T19:05:21.519Z,33.70
2022-09-02T19:08:16.433Z,34.00
2022-09-02T19:10:46.665Z,33.30
2022-09-02T19:13:15.343Z,33.60
2022-09-02T19:15:43.704Z,33.30
2022-09-02T19:18:12.427Z,33.50
2022-09-02T19:20:40.718Z,33.90
2022-09-02T19:23:12.263Z,34.60
2022-09-02T19:25:45.631Z,34.40
2022-09-02T19:28:16.825Z,33.70
2022-09-02T19:30:45.518Z,34.50
2022-09-02T19:33:14.859Z,35.70
2022-09-02T19:35:48.204Z,36.10
2022-09-02T19:38:17.836Z,36.50
2022-09-02T19:40:49.690Z,36.90
2022-09-02T19:43:18.018Z,36.80
2022-09-02T19:45:51.272Z,36.90
2022-09-02T19:48:20.750Z,37.90
2022-09-02T19:50:49.932Z,37.60
2022-09-02T19:53:22.227Z,37.80
2022-09-02T19:55:52.111Z,37.80
2022-09-02T19:58:20.394Z,37.50
2022-09-02T20:00:49.608Z,37.70
2022-09-02T20:03:17.844Z,37.40
2022-09-02T20:05:46.375Z,37.90
2022-09-02T20:08:16.394Z,38.80
2022-09-02T20:10:45.883Z,37.90
2022-09-02T20:13:17.962Z,38.70
2022-09-02T20:15:46.260Z,39.30
2022-09-02T20:18:16.293Z,38.80
2022-09-02T20:20:46.533Z,38.30
2022-09-02T20:23:17.481Z,38.20
2022-09-02T20:26:18.284Z,39.20
2022-09-02T20:29:00.903Z,39.00
2022-09-02T20:31:43.561Z,40.00
2022-09-02T20:34:34.208Z,38.70
2022-09-02T20:37:14.492Z,38.10
2022-09-02T20:40:04.719Z,38.00
2022-09-02T20:42:53.438Z,37.40
2022-09-02T20:45:27.740Z,37.70
2022-09-02T20:48:06.266Z,37.60
2022-09-02T20:50:46.452Z,37.20
2022-09-02T20:53:29.599Z,37.00
2022-09-02T20:56:02.969Z,37.90
2022-09-02T20:58:42.784Z,38.30
2022-09-02T21:01:19.928Z,39.00
2022-09-02T21:03:55.220Z,38.70
2022-09-02T21:06:28.492Z,40.20
2022-09-02T21:09:06.207Z,40.30
2022-09-02T21:11:42.923Z,40.80
2022-09-02T21:14:16.448Z,40.70
2022-09-02T21:16:50.078Z,41.20
2022-09-02T21:19:24.940Z,41.20
2022-09-02T21:21:57.107Z,41.50
2022-09-02T21:24:33.611Z,42.40
2022-09-02T21:27:06.317Z,43.20
2022-09-02T21:29:42.408Z,43.50
2022-09-02T21:32:19.199Z,43.90
2022-09-02T21:34:54.030Z,45.50
2022-09-02T21:37:24.650Z,46.90
2022-09-02T21:39:58.556Z,48.60
2022-09-02T21:42:34.176Z,48.90
2022-09-02T21:45:12.584Z,48.00
2022-09-02T21:47:52.774Z,49.00
2022-09-02T21:50:29.834Z,47.80
2022-09-02T21:53:05.023Z,47.00
2022-09-02T21:55:48.088Z,46.60
2022-09-02T21:58:35.520Z,46.40
2022-09-02T22:01:08.961Z,45.70
2022-09-02T22:03:43.781Z,45.60
2022-09-02T22:06:19.075Z,45.90
2022-09-02T22:08:52.922Z,46.10
2022-09-02T22:11:27.734Z,44.70
2022-09-02T22:13:59.307Z,44.90
2022-09-02T22:16:34.340Z,45.20
2022-09-02T22:19:10.886Z,45.50
2022-09-02T22:21:47.275Z,45.50
2022-09-02T22:24:16.351Z,46.70
2022-09-02T22:26:48.869Z,46.50
2022-09-02T22:29:22.619Z,47.20
2022-09-02T22:31:55.331Z,47.00
2022-09-02T22:34:26.284Z,46.80
2022-09-02T22:37:00.551Z,46.90
2022-09-02T22:39:37.349Z,45.80
2022-09-02T22:42:20.100Z,46.00
2022-09-02T22:45:12.509Z,46.00
2022-09-02T22:48:03.966Z,46.20
2022-09-02T22:50:56.890Z,46.50
2022-09-02T22:53:25.183Z,47.40
2022-09-02T22:56:03.767Z,46.90
2022-09-02T22:58:48.823Z,46.70
2022-09-02T23:01:25.014Z,46.90
2022-09-02T23:04:07.140Z,47.30
2022-09-02T23:06:36.809Z,48.10
2022-09-02T23:09:10.429Z,48.20
2022-09-02T23:11:49.982Z,48.10
2022-09-02T23:14:29.081Z,47.40
2022-09-02T23:17:20.494Z,47.40
2022-09-02T23:20:06.751Z,49.00
2022-09-02T23:22:46.365Z,49.00
2022-09-02T23:25:33.640Z,48.70
2022-09-02T23:28:13.285Z,48.70
2022-09-02T23:31:03.096Z,49.00
2022-09-02T23:33:59.030Z,49.70
2022-09-02T23:36:40.373Z,49.50
2022-09-02T23:39:43.268Z,49.10
2022-09-02T23:42:14.279Z,49.30
2022-09-02T23:44:43.004Z,49.60
2022-09-02T23:47:24.125Z,50.30
2022-09-02T23:50:00.429Z,50.80
2022-09-02T23:52:43.444Z,50.50
2022-09-02T23:55:22.417Z,50.70
2022-09-02T23:58:06.246Z,50.60
